sensor_id;sensor_type;location;lat;lon;timestamp;P1;durP1;ratioP1;P2;durP2;ratioP2
80586;SDS011;69943;20.850;106.728;2023-09-18T00:00:01;3.20;;;1.30;;
80586;SDS011;69943;20.850;106.728;2023-09-18T00:02:35;1.80;;;1.40;;
80586;SDS011;69943;20.850;106.728;2023-09-18T00:05:07;1.40;;;1.10;;
80586;SDS011;69943;20.850;106.728;2023-09-18T00:07:39;1.70;;;1.30;;
80586;SDS011;69943;20.850;106.728;2023-09-18T00:10:11;2.20;;;1.00;;
80586;SDS011;69943;20.850;106.728;2023-09-18T00:12:43;1.60;;;1.10;;
80586;SDS011;69943;20.850;106.728;2023-09-18T00:15:15;2.00;;;1.50;;
80586;SDS011;69943;20.850;106.728;2023-09-18T00:17:47;1.70;;;1.30;;
80586;SDS011;69943;20.850;106.728;2023-09-18T00:20:19;2.20;;;1.40;;
80586;SDS011;69943;20.850;106.728;2023-09-18T00:22:57;1.50;;;1.20;;
80586;SDS011;69943;20.850;106.728;2023-09-18T00:25:29;3.80;;;1.70;;
80586;SDS011;69943;20.850;106.728;2023-09-18T00:28:02;1.60;;;1.20;;
80586;SDS011;69943;20.850;106.728;2023-09-18T00:30:37;4.40;;;1.50;;
80586;SDS011;69943;20.850;106.728;2023-09-18T00:33:14;2.50;;;1.90;;
80586;SDS011;69943;20.850;106.728;2023-09-18T00:35:46;1.70;;;1.20;;
80586;SDS011;69943;20.850;106.728;2023-09-18T00:38:18;1.60;;;1.10;;
80586;SDS011;69943;20.850;106.728;2023-09-18T00:40:51;0.90;;;0.90;;
80586;SDS011;69943;20.850;106.728;2023-09-18T00:43:23;1.50;;;1.10;;
80586;SDS011;69943;20.850;106.728;2023-09-18T00:45:55;1.80;;;1.20;;
80586;SDS011;69943;20.850;106.728;2023-09-18T00:48:26;2.20;;;1.10;;
80586;SDS011;69943;20.850;106.728;2023-09-18T00:51:00;2.60;;;1.50;;
80586;SDS011;69943;20.850;106.728;2023-09-18T00:53:32;3.20;;;1.50;;
80586;SDS011;69943;20.850;106.728;2023-09-18T00:56:04;1.30;;;1.20;;
80586;SDS011;69943;20.850;106.728;2023-09-18T00:58:36;2.20;;;1.40;;
80586;SDS011;69943;20.850;106.728;2023-09-18T01:01:07;2.60;;;1.40;;
80586;SDS011;69943;20.850;106.728;2023-09-18T01:03:41;2.00;;;1.40;;
80586;SDS011;69943;20.850;106.728;2023-09-18T01:06:13;2.60;;;1.10;;
80586;SDS011;69943;20.850;106.728;2023-09-18T01:08:45;1.90;;;1.30;;
80586;SDS011;69943;20.850;106.728;2023-09-18T01:14:16;1.30;;;1.10;;
80586;SDS011;69943;20.850;106.728;2023-09-18T01:16:56;2.20;;;1.20;;
80586;SDS011;69943;20.850;106.728;2023-09-18T01:19:38;1.40;;;1.20;;
80586;SDS011;69943;20.850;106.728;2023-09-18T01:22:16;1.60;;;1.20;;
80586;SDS011;69943;20.850;106.728;2023-09-18T01:24:49;3.10;;;1.40;;
80586;SDS011;69943;20.850;106.728;2023-09-18T01:27:20;2.40;;;1.40;;
80586;SDS011;69943;20.850;106.728;2023-09-18T01:29:53;1.50;;;1.00;;
80586;SDS011;69943;20.850;106.728;2023-09-18T01:32:26;2.00;;;1.00;;
80586;SDS011;69943;20.850;106.728;2023-09-18T01:35:01;2.00;;;1.10;;
80586;SDS011;69943;20.850;106.728;2023-09-18T01:37:35;1.60;;;1.10;;
80586;SDS011;69943;20.850;106.728;2023-09-18T01:40:08;2.70;;;1.50;;
80586;SDS011;69943;20.850;106.728;2023-09-18T01:42:41;1.80;;;1.40;;
80586;SDS011;69943;20.850;106.728;2023-09-18T01:45:14;1.30;;;1.10;;
80586;SDS011;69943;20.850;106.728;2023-09-18T01:47:46;2.00;;;1.30;;
80586;SDS011;69943;20.850;106.728;2023-09-18T01:50:18;1.20;;;1.10;;
80586;SDS011;69943;20.850;106.728;2023-09-18T01:52:50;0.80;;;0.80;;
80586;SDS011;69943;20.850;106.728;2023-09-18T01:55:22;1.90;;;1.20;;
80586;SDS011;69943;20.850;106.728;2023-09-18T01:57:55;1.80;;;1.30;;
80586;SDS011;69943;20.850;106.728;2023-09-18T02:00:27;1.50;;;1.00;;
80586;SDS011;69943;20.850;106.728;2023-09-18T02:02:59;1.80;;;1.20;;
80586;SDS011;69943;20.850;106.728;2023-09-18T02:05:31;2.70;;;1.40;;
80586;SDS011;69943;20.850;106.728;2023-09-18T02:08:04;1.80;;;1.30;;
80586;SDS011;69943;20.850;106.728;2023-09-18T02:10:35;2.50;;;1.10;;
80586;SDS011;69943;20.850;106.728;2023-09-18T02:13:07;2.50;;;1.20;;
80586;SDS011;69943;20.850;106.728;2023-09-18T02:15:41;1.30;;;1.20;;
80586;SDS011;69943;20.850;106.728;2023-09-18T02:18:13;1.60;;;1.30;;
80586;SDS011;69943;20.850;106.728;2023-09-18T02:20:46;2.80;;;1.30;;
80586;SDS011;69943;20.850;106.728;2023-09-18T02:23:19;2.80;;;1.10;;
80586;SDS011;69943;20.850;106.728;2023-09-18T02:25:57;2.00;;;1.20;;
80586;SDS011;69943;20.850;106.728;2023-09-18T02:28:29;1.10;;;1.00;;
80586;SDS011;69943;20.850;106.728;2023-09-18T02:31:01;2.10;;;1.20;;
80586;SDS011;69943;20.850;106.728;2023-09-18T02:33:33;2.00;;;1.30;;
80586;SDS011;69943;20.850;106.728;2023-09-18T02:36:05;1.90;;;1.30;;
80586;SDS011;69943;20.850;106.728;2023-09-18T02:38:37;1.30;;;0.90;;
80586;SDS011;69943;20.850;106.728;2023-09-18T02:41:10;3.60;;;1.30;;
80586;SDS011;69943;20.850;106.728;2023-09-18T02:43:42;2.70;;;1.20;;
80586;SDS011;69943;20.850;106.728;2023-09-18T02:46:13;1.80;;;1.30;;
80586;SDS011;69943;20.850;106.728;2023-09-18T02:48:45;3.90;;;1.60;;
80586;SDS011;69943;20.850;106.728;2023-09-18T02:51:17;1.70;;;1.20;;
80586;SDS011;69943;20.850;106.728;2023-09-18T02:53:49;1.60;;;1.40;;
80586;SDS011;69943;20.850;106.728;2023-09-18T02:56:21;1.50;;;1.20;;
80586;SDS011;69943;20.850;106.728;2023-09-18T02:58:53;1.80;;;1.30;;
80586;SDS011;69943;20.850;106.728;2023-09-18T03:01:25;1.60;;;1.20;;
80586;SDS011;69943;20.850;106.728;2023-09-18T03:03:57;1.70;;;1.40;;
80586;SDS011;69943;20.850;106.728;2023-09-18T03:06:29;3.50;;;1.20;;
80586;SDS011;69943;20.850;106.728;2023-09-18T03:09:00;2.40;;;1.50;;
80586;SDS011;69943;20.850;106.728;2023-09-18T03:11:32;1.70;;;1.20;;
80586;SDS011;69943;20.850;106.728;2023-09-18T03:14:04;1.40;;;1.20;;
80586;SDS011;69943;20.850;106.728;2023-09-18T03:16:36;3.80;;;1.30;;
80586;SDS011;69943;20.850;106.728;2023-09-18T03:19:08;2.50;;;1.50;;
80586;SDS011;69943;20.850;106.728;2023-09-18T03:21:40;1.90;;;1.30;;
80586;SDS011;69943;20.850;106.728;2023-09-18T03:24:12;1.60;;;1.40;;
80586;SDS011;69943;20.850;106.728;2023-09-18T03:26:44;1.50;;;1.10;;
80586;SDS011;69943;20.850;106.728;2023-09-18T03:29:16;2.60;;;1.40;;
80586;SDS011;69943;20.850;106.728;2023-09-18T03:31:48;1.80;;;1.20;;
80586;SDS011;69943;20.850;106.728;2023-09-18T03:34:20;2.20;;;1.30;;
80586;SDS011;69943;20.850;106.728;2023-09-18T03:36:52;3.90;;;1.20;;
80586;SDS011;69943;20.850;106.728;2023-09-18T03:39:24;1.50;;;1.40;;
80586;SDS011;69943;20.850;106.728;2023-09-18T03:41:56;2.30;;;1.40;;
80586;SDS011;69943;20.850;106.728;2023-09-18T03:44:28;3.40;;;1.40;;
80586;SDS011;69943;20.850;106.728;2023-09-18T03:47:00;3.50;;;1.60;;
80586;SDS011;69943;20.850;106.728;2023-09-18T03:49:32;1.50;;;1.30;;
80586;SDS011;69943;20.850;106.728;2023-09-18T03:52:04;3.00;;;1.50;;
80586;SDS011;69943;20.850;106.728;2023-09-18T03:54:36;2.60;;;1.50;;
80586;SDS011;69943;20.850;106.728;2023-09-18T03:57:08;2.20;;;1.50;;
80586;SDS011;69943;20.850;106.728;2023-09-18T03:59:40;1.80;;;1.70;;
80586;SDS011;69943;20.850;106.728;2023-09-18T04:02:14;3.10;;;1.50;;
80586;SDS011;69943;20.850;106.728;2023-09-18T04:04:46;2.50;;;1.70;;
80586;SDS011;69943;20.850;106.728;2023-09-18T04:07:18;3.80;;;1.80;;
80586;SDS011;69943;20.850;106.728;2023-09-18T04:09:50;3.00;;;1.80;;
80586;SDS011;69943;20.850;106.728;2023-09-18T04:12:22;2.20;;;1.90;;
80586;SDS011;69943;20.850;106.728;2023-09-18T04:14:55;3.90;;;1.70;;
80586;SDS011;69943;20.850;106.728;2023-09-18T04:17:27;2.30;;;1.70;;
80586;SDS011;69943;20.850;106.728;2023-09-18T04:19:59;2.20;;;1.80;;
80586;SDS011;69943;20.850;106.728;2023-09-18T04:22:32;3.50;;;1.70;;
80586;SDS011;69943;20.850;106.728;2023-09-18T04:25:04;1.80;;;1.60;;
80586;SDS011;69943;20.850;106.728;2023-09-18T04:27:36;2.40;;;1.80;;
80586;SDS011;69943;20.850;106.728;2023-09-18T04:30:08;3.40;;;1.80;;
80586;SDS011;69943;20.850;106.728;2023-09-18T04:32:40;2.20;;;1.70;;
80586;SDS011;69943;20.850;106.728;2023-09-18T04:35:12;3.60;;;1.80;;
80586;SDS011;69943;20.850;106.728;2023-09-18T04:37:44;2.00;;;1.80;;
80586;SDS011;69943;20.850;106.728;2023-09-18T04:40:16;2.10;;;1.60;;
80586;SDS011;69943;20.850;106.728;2023-09-18T04:42:49;5.30;;;1.70;;
80586;SDS011;69943;20.850;106.728;2023-09-18T04:45:21;3.50;;;1.90;;
80586;SDS011;69943;20.850;106.728;2023-09-18T04:47:53;1.60;;;1.50;;
80586;SDS011;69943;20.850;106.728;2023-09-18T04:50:24;2.10;;;1.70;;
80586;SDS011;69943;20.850;106.728;2023-09-18T04:52:57;4.00;;;1.60;;
80586;SDS011;69943;20.850;106.728;2023-09-18T04:55:29;2.30;;;1.70;;
80586;SDS011;69943;20.850;106.728;2023-09-18T04:58:01;1.70;;;1.50;;
80586;SDS011;69943;20.850;106.728;2023-09-18T05:00:34;2.30;;;1.70;;
80586;SDS011;69943;20.850;106.728;2023-09-18T05:03:07;2.70;;;1.70;;
80586;SDS011;69943;20.850;106.728;2023-09-18T05:05:40;2.10;;;1.80;;
80586;SDS011;69943;20.850;106.728;2023-09-18T05:08:14;2.00;;;1.80;;
80586;SDS011;69943;20.850;106.728;2023-09-18T05:10:46;1.80;;;1.60;;
80586;SDS011;69943;20.850;106.728;2023-09-18T05:13:18;1.90;;;1.70;;
80586;SDS011;69943;20.850;106.728;2023-09-18T05:15:50;1.50;;;1.30;;
80586;SDS011;69943;20.850;106.728;2023-09-18T05:18:22;1.60;;;1.50;;
80586;SDS011;69943;20.850;106.728;2023-09-18T05:20:54;2.30;;;1.60;;
80586;SDS011;69943;20.850;106.728;2023-09-18T05:23:26;4.70;;;2.20;;
80586;SDS011;69943;20.850;106.728;2023-09-18T05:25:59;1.90;;;1.70;;
80586;SDS011;69943;20.850;106.728;2023-09-18T05:28:32;1.50;;;1.40;;
80586;SDS011;69943;20.850;106.728;2023-09-18T05:31:04;2.90;;;1.50;;
80586;SDS011;69943;20.850;106.728;2023-09-18T05:33:36;2.40;;;1.60;;
80586;SDS011;69943;20.850;106.728;2023-09-18T05:36:08;4.10;;;1.40;;
80586;SDS011;69943;20.850;106.728;2023-09-18T05:38:44;3.10;;;1.50;;
80586;SDS011;69943;20.850;106.728;2023-09-18T05:41:22;2.90;;;1.40;;
80586;SDS011;69943;20.850;106.728;2023-09-18T05:44:22;2.30;;;1.70;;
80586;SDS011;69943;20.850;106.728;2023-09-18T05:47:09;1.90;;;1.60;;
80586;SDS011;69943;20.850;106.728;2023-09-18T05:53:12;2.30;;;1.70;;
80586;SDS011;69943;20.850;106.728;2023-09-18T05:55:44;1.60;;;1.50;;
80586;SDS011;69943;20.850;106.728;2023-09-18T05:58:20;2.70;;;1.60;;
80586;SDS011;69943;20.850;106.728;2023-09-18T06:01:04;4.50;;;1.50;;
80586;SDS011;69943;20.850;106.728;2023-09-18T06:03:58;4.90;;;1.90;;
80586;SDS011;69943;20.850;106.728;2023-09-18T06:06:30;1.60;;;1.40;;
80586;SDS011;69943;20.850;106.728;2023-09-18T06:09:02;2.20;;;1.40;;
80586;SDS011;69943;20.850;106.728;2023-09-18T06:11:33;1.70;;;1.60;;
80586;SDS011;69943;20.850;106.728;2023-09-18T06:14:05;2.90;;;1.60;;
80586;SDS011;69943;20.850;106.728;2023-09-18T06:16:37;2.80;;;1.70;;
80586;SDS011;69943;20.850;106.728;2023-09-18T06:19:09;3.50;;;1.40;;
80586;SDS011;69943;20.850;106.728;2023-09-18T06:21:41;1.70;;;1.40;;
80586;SDS011;69943;20.850;106.728;2023-09-18T06:24:22;1.50;;;1.20;;
80586;SDS011;69943;20.850;106.728;2023-09-18T06:27:37;3.00;;;1.20;;
80586;SDS011;69943;20.850;106.728;2023-09-18T06:30:12;1.30;;;1.20;;
80586;SDS011;69943;20.850;106.728;2023-09-18T06:33:07;2.40;;;1.30;;
80586;SDS011;69943;20.850;106.728;2023-09-18T06:35:39;1.60;;;1.30;;
80586;SDS011;69943;20.850;106.728;2023-09-18T06:38:12;1.30;;;1.00;;
80586;SDS011;69943;20.850;106.728;2023-09-18T06:40:46;1.50;;;1.00;;
80586;SDS011;69943;20.850;106.728;2023-09-18T06:43:18;2.00;;;1.20;;
80586;SDS011;69943;20.850;106.728;2023-09-18T06:45:50;3.10;;;1.20;;
80586;SDS011;69943;20.850;106.728;2023-09-18T06:48:22;1.00;;;0.90;;
80586;SDS011;69943;20.850;106.728;2023-09-18T06:50:54;1.00;;;0.90;;
80586;SDS011;69943;20.850;106.728;2023-09-18T06:53:26;1.10;;;0.90;;
80586;SDS011;69943;20.850;106.728;2023-09-18T06:55:59;4.30;;;1.10;;
80586;SDS011;69943;20.850;106.728;2023-09-18T06:58:31;2.30;;;1.20;;
80586;SDS011;69943;20.850;106.728;2023-09-18T07:01:03;0.60;;;0.60;;
80586;SDS011;69943;20.850;106.728;2023-09-18T07:03:37;1.90;;;0.90;;
80586;SDS011;69943;20.850;106.728;2023-09-18T07:06:11;0.90;;;0.80;;
80586;SDS011;69943;20.850;106.728;2023-09-18T07:08:43;3.40;;;1.20;;
80586;SDS011;69943;20.850;106.728;2023-09-18T07:11:15;1.90;;;0.90;;
80586;SDS011;69943;20.850;106.728;2023-09-18T07:13:47;1.10;;;0.70;;
80586;SDS011;69943;20.850;106.728;2023-09-18T07:16:19;1.50;;;1.10;;
80586;SDS011;69943;20.850;106.728;2023-09-18T07:18:51;1.30;;;1.00;;
80586;SDS011;69943;20.850;106.728;2023-09-18T07:21:23;5.40;;;1.20;;
80586;SDS011;69943;20.850;106.728;2023-09-18T07:23:55;3.40;;;0.90;;
80586;SDS011;69943;20.850;106.728;2023-09-18T07:26:27;1.20;;;0.80;;
80586;SDS011;69943;20.850;106.728;2023-09-18T07:28:59;2.60;;;0.90;;
80586;SDS011;69943;20.850;106.728;2023-09-18T07:31:31;0.70;;;0.70;;
80586;SDS011;69943;20.850;106.728;2023-09-18T07:34:03;2.00;;;0.90;;
80586;SDS011;69943;20.850;106.728;2023-09-18T07:36:37;1.70;;;1.00;;
80586;SDS011;69943;20.850;106.728;2023-09-18T07:39:08;1.10;;;0.80;;
80586;SDS011;69943;20.850;106.728;2023-09-18T07:41:42;2.10;;;0.90;;
80586;SDS011;69943;20.850;106.728;2023-09-18T07:44:22;2.50;;;0.80;;
80586;SDS011;69943;20.850;106.728;2023-09-18T07:46:54;3.50;;;1.10;;
80586;SDS011;69943;20.850;106.728;2023-09-18T07:49:26;2.90;;;0.90;;
80586;SDS011;69943;20.850;106.728;2023-09-18T07:51:58;2.20;;;1.00;;
80586;SDS011;69943;20.850;106.728;2023-09-18T07:54:30;1.50;;;0.80;;
80586;SDS011;69943;20.850;106.728;2023-09-18T07:57:02;0.70;;;0.70;;
80586;SDS011;69943;20.850;106.728;2023-09-18T07:59:37;1.40;;;0.90;;
80586;SDS011;69943;20.850;106.728;2023-09-18T08:02:10;0.90;;;0.50;;
80586;SDS011;69943;20.850;106.728;2023-09-18T08:04:42;0.90;;;0.60;;
80586;SDS011;69943;20.850;106.728;2023-09-18T08:07:14;2.20;;;0.90;;
80586;SDS011;69943;20.850;106.728;2023-09-18T08:09:46;0.70;;;0.70;;
80586;SDS011;69943;20.850;106.728;2023-09-18T08:12:19;0.50;;;0.50;;
80586;SDS011;69943;20.850;106.728;2023-09-18T08:15:05;4.60;;;1.10;;
80586;SDS011;69943;20.850;106.728;2023-09-18T08:17:37;2.20;;;0.90;;
80586;SDS011;69943;20.850;106.728;2023-09-18T08:20:11;2.10;;;0.90;;
80586;SDS011;69943;20.850;106.728;2023-09-18T08:22:43;1.50;;;0.90;;
80586;SDS011;69943;20.850;106.728;2023-09-18T08:25:16;4.00;;;1.60;;
80586;SDS011;69943;20.850;106.728;2023-09-18T08:27:48;5.30;;;1.50;;
80586;SDS011;69943;20.850;106.728;2023-09-18T08:30:20;1.80;;;0.80;;
80586;SDS011;69943;20.850;106.728;2023-09-18T08:32:51;6.40;;;1.30;;
80586;SDS011;69943;20.850;106.728;2023-09-18T08:35:23;2.80;;;0.80;;
80586;SDS011;69943;20.850;106.728;2023-09-18T08:37:59;1.90;;;0.70;;
80586;SDS011;69943;20.850;106.728;2023-09-18T08:40:32;2.10;;;1.10;;
80586;SDS011;69943;20.850;106.728;2023-09-18T08:43:05;1.40;;;0.80;;
80586;SDS011;69943;20.850;106.728;2023-09-18T08:45:51;1.70;;;0.50;;
80586;SDS011;69943;20.850;106.728;2023-09-18T08:48:23;3.80;;;0.90;;
80586;SDS011;69943;20.850;106.728;2023-09-18T08:50:55;1.80;;;1.20;;
80586;SDS011;69943;20.850;106.728;2023-09-18T08:53:27;8.30;;;1.30;;
80586;SDS011;69943;20.850;106.728;2023-09-18T08:56:01;3.70;;;1.00;;
80586;SDS011;69943;20.850;106.728;2023-09-18T08:58:35;2.40;;;1.40;;
80586;SDS011;69943;20.850;106.728;2023-09-18T09:01:11;2.00;;;1.00;;
80586;SDS011;69943;20.850;106.728;2023-09-18T09:03:43;3.20;;;0.90;;
80586;SDS011;69943;20.850;106.728;2023-09-18T09:06:19;3.30;;;1.10;;
80586;SDS011;69943;20.850;106.728;2023-09-18T09:08:51;2.40;;;1.20;;
80586;SDS011;69943;20.850;106.728;2023-09-18T09:11:23;4.40;;;1.10;;
80586;SDS011;69943;20.850;106.728;2023-09-18T09:14:14;0.90;;;0.60;;
80586;SDS011;69943;20.850;106.728;2023-09-18T09:16:54;5.20;;;1.00;;
80586;SDS011;69943;20.850;106.728;2023-09-18T09:19:29;0.80;;;0.70;;
80586;SDS011;69943;20.850;106.728;2023-09-18T09:22:01;3.20;;;1.10;;
80586;SDS011;69943;20.850;106.728;2023-09-18T09:24:37;1.20;;;0.90;;
80586;SDS011;69943;20.850;106.728;2023-09-18T09:27:10;3.30;;;1.10;;
80586;SDS011;69943;20.850;106.728;2023-09-18T09:29:52;1.00;;;0.70;;
80586;SDS011;69943;20.850;106.728;2023-09-18T09:32:31;1.50;;;0.60;;
80586;SDS011;69943;20.850;106.728;2023-09-18T09:35:04;8.10;;;1.40;;
80586;SDS011;69943;20.850;106.728;2023-09-18T09:37:37;2.60;;;0.80;;
80586;SDS011;69943;20.850;106.728;2023-09-18T09:40:11;3.60;;;1.10;;
80586;SDS011;69943;20.850;106.728;2023-09-18T09:42:44;2.60;;;0.80;;
80586;SDS011;69943;20.850;106.728;2023-09-18T09:45:17;2.10;;;1.20;;
80586;SDS011;69943;20.850;106.728;2023-09-18T09:47:52;2.70;;;1.00;;
80586;SDS011;69943;20.850;106.728;2023-09-18T09:50:25;2.60;;;0.90;;
80586;SDS011;69943;20.850;106.728;2023-09-18T09:52:57;2.30;;;0.80;;
80586;SDS011;69943;20.850;106.728;2023-09-18T09:55:30;1.30;;;0.80;;
80586;SDS011;69943;20.850;106.728;2023-09-18T09:58:05;2.10;;;0.90;;
80586;SDS011;69943;20.850;106.728;2023-09-18T10:00:49;3.40;;;1.00;;
80586;SDS011;69943;20.850;106.728;2023-09-18T10:03:22;2.50;;;1.00;;
80586;SDS011;69943;20.850;106.728;2023-09-18T10:05:54;1.60;;;0.80;;
80586;SDS011;69943;20.850;106.728;2023-09-18T10:08:27;4.10;;;1.10;;
80586;SDS011;69943;20.850;106.728;2023-09-18T10:11:07;1.20;;;0.80;;
80586;SDS011;69943;20.850;106.728;2023-09-18T10:13:41;1.80;;;0.90;;
80586;SDS011;69943;20.850;106.728;2023-09-18T10:16:18;3.70;;;1.10;;
80586;SDS011;69943;20.850;106.728;2023-09-18T10:18:55;12.40;;;1.70;;
80586;SDS011;69943;20.850;106.728;2023-09-18T10:21:33;4.00;;;1.10;;
80586;SDS011;69943;20.850;106.728;2023-09-18T10:29:36;1.40;;;1.10;;
80586;SDS011;69943;20.850;106.728;2023-09-18T10:35:13;2.00;;;1.20;;
80586;SDS011;69943;20.850;106.728;2023-09-18T10:37:46;4.60;;;1.40;;
80586;SDS011;69943;20.850;106.728;2023-09-18T10:40:22;6.90;;;1.60;;
80586;SDS011;69943;20.850;106.728;2023-09-18T10:42:57;1.90;;;1.30;;
80586;SDS011;69943;20.850;106.728;2023-09-18T10:45:29;2.30;;;1.20;;
80586;SDS011;69943;20.850;106.728;2023-09-18T10:48:01;2.10;;;1.00;;
80586;SDS011;69943;20.850;106.728;2023-09-18T10:50:38;8.60;;;2.00;;
80586;SDS011;69943;20.850;106.728;2023-09-18T10:53:12;7.60;;;2.10;;
80586;SDS011;69943;20.850;106.728;2023-09-18T10:55:44;15.40;;;2.40;;
80586;SDS011;69943;20.850;106.728;2023-09-18T10:58:22;9.20;;;1.90;;
80586;SDS011;69943;20.850;106.728;2023-09-18T11:00:59;6.00;;;1.70;;
80586;SDS011;69943;20.850;106.728;2023-09-18T11:03:33;6.80;;;1.30;;
80586;SDS011;69943;20.850;106.728;2023-09-18T11:06:06;8.30;;;1.80;;
80586;SDS011;69943;20.850;106.728;2023-09-18T11:08:46;8.30;;;2.00;;
80586;SDS011;69943;20.850;106.728;2023-09-18T11:11:20;9.70;;;2.00;;
80586;SDS011;69943;20.850;106.728;2023-09-18T11:13:56;6.10;;;1.60;;
80586;SDS011;69943;20.850;106.728;2023-09-18T11:21:39;5.00;;;1.30;;
80586;SDS011;69943;20.850;106.728;2023-09-18T11:24:18;3.30;;;1.20;;
80586;SDS011;69943;20.850;106.728;2023-09-18T11:26:52;2.80;;;1.40;;
80586;SDS011;69943;20.850;106.728;2023-09-18T11:29:24;4.70;;;1.50;;
80586;SDS011;69943;20.850;106.728;2023-09-18T11:31:59;2.20;;;1.30;;
80586;SDS011;69943;20.850;106.728;2023-09-18T11:34:32;2.90;;;1.20;;
80586;SDS011;69943;20.850;106.728;2023-09-18T11:37:20;1.20;;;1.10;;
80586;SDS011;69943;20.850;106.728;2023-09-18T11:39:53;2.00;;;1.40;;
80586;SDS011;69943;20.850;106.728;2023-09-18T11:42:26;3.20;;;1.20;;
80586;SDS011;69943;20.850;106.728;2023-09-18T11:44:59;3.10;;;1.20;;
80586;SDS011;69943;20.850;106.728;2023-09-18T11:47:31;2.30;;;1.30;;
80586;SDS011;69943;20.850;106.728;2023-09-18T11:50:03;1.50;;;1.10;;
80586;SDS011;69943;20.850;106.728;2023-09-18T11:52:36;1.60;;;1.10;;
80586;SDS011;69943;20.850;106.728;2023-09-18T11:55:08;2.50;;;1.00;;
80586;SDS011;69943;20.850;106.728;2023-09-18T11:57:40;2.00;;;1.20;;
80586;SDS011;69943;20.850;106.728;2023-09-18T12:00:20;1.20;;;0.90;;
80586;SDS011;69943;20.850;106.728;2023-09-18T12:02:55;3.60;;;1.20;;
80586;SDS011;69943;20.850;106.728;2023-09-18T12:05:28;2.00;;;1.30;;
80586;SDS011;69943;20.850;106.728;2023-09-18T12:08:00;1.30;;;1.10;;
80586;SDS011;69943;20.850;106.728;2023-09-18T12:10:34;1.90;;;1.20;;
80586;SDS011;69943;20.850;106.728;2023-09-18T12:13:14;2.60;;;1.40;;
80586;SDS011;69943;20.850;106.728;2023-09-18T12:15:47;1.10;;;1.00;;
80586;SDS011;69943;20.850;106.728;2023-09-18T12:18:19;1.50;;;1.00;;
80586;SDS011;69943;20.850;106.728;2023-09-18T12:20:53;1.50;;;1.10;;
80586;SDS011;69943;20.850;106.728;2023-09-18T12:23:26;1.90;;;1.20;;
80586;SDS011;69943;20.850;106.728;2023-09-18T12:25:59;1.00;;;0.90;;
80586;SDS011;69943;20.850;106.728;2023-09-18T12:28:32;1.50;;;1.00;;
80586;SDS011;69943;20.850;106.728;2023-09-18T12:31:05;1.50;;;1.10;;
80586;SDS011;69943;20.850;106.728;2023-09-18T12:33:37;2.60;;;1.40;;
80586;SDS011;69943;20.850;106.728;2023-09-18T12:36:09;2.30;;;1.40;;
80586;SDS011;69943;20.850;106.728;2023-09-18T12:38:55;2.40;;;1.10;;
80586;SDS011;69943;20.850;106.728;2023-09-18T12:44:05;2.20;;;1.20;;
80586;SDS011;69943;20.850;106.728;2023-09-18T12:46:37;1.80;;;1.20;;
80586;SDS011;69943;20.850;106.728;2023-09-18T12:49:21;1.10;;;1.00;;
80586;SDS011;69943;20.850;106.728;2023-09-18T12:51:59;1.30;;;1.20;;
80586;SDS011;69943;20.850;106.728;2023-09-18T12:54:38;1.60;;;1.20;;
80586;SDS011;69943;20.850;106.728;2023-09-18T12:57:10;1.40;;;1.20;;
80586;SDS011;69943;20.850;106.728;2023-09-18T12:59:43;1.60;;;1.20;;
80586;SDS011;69943;20.850;106.728;2023-09-18T13:02:16;1.40;;;1.10;;
80586;SDS011;69943;20.850;106.728;2023-09-18T13:04:52;1.30;;;1.10;;
80586;SDS011;69943;20.850;106.728;2023-09-18T13:07:25;2.00;;;1.20;;
80586;SDS011;69943;20.850;106.728;2023-09-18T13:10:06;1.70;;;1.10;;
80586;SDS011;69943;20.850;106.728;2023-09-18T13:12:50;2.20;;;1.20;;
80586;SDS011;69943;20.850;106.728;2023-09-18T13:15:26;1.60;;;1.10;;
80586;SDS011;69943;20.850;106.728;2023-09-18T13:18:08;1.50;;;1.10;;
80586;SDS011;69943;20.850;106.728;2023-09-18T13:20:41;1.10;;;1.00;;
80586;SDS011;69943;20.850;106.728;2023-09-18T13:23:14;0.90;;;0.80;;
80586;SDS011;69943;20.850;106.728;2023-09-18T13:25:45;4.00;;;1.30;;
80586;SDS011;69943;20.850;106.728;2023-09-18T13:28:17;2.00;;;1.20;;
80586;SDS011;69943;20.850;106.728;2023-09-18T13:30:51;1.40;;;1.00;;
80586;SDS011;69943;20.850;106.728;2023-09-18T13:33:23;1.20;;;1.00;;
80586;SDS011;69943;20.850;106.728;2023-09-18T13:35:56;1.00;;;0.90;;
80586;SDS011;69943;20.850;106.728;2023-09-18T13:38:28;1.50;;;1.30;;
80586;SDS011;69943;20.850;106.728;2023-09-18T13:41:00;0.90;;;0.70;;
80586;SDS011;69943;20.850;106.728;2023-09-18T13:43:31;1.40;;;1.00;;
80586;SDS011;69943;20.850;106.728;2023-09-18T13:46:06;1.80;;;1.00;;
80586;SDS011;69943;20.850;106.728;2023-09-18T13:48:37;1.20;;;1.10;;
80586;SDS011;69943;20.850;106.728;2023-09-18T13:51:09;2.00;;;1.10;;
80586;SDS011;69943;20.850;106.728;2023-09-18T13:53:41;0.90;;;0.90;;
80586;SDS011;69943;20.850;106.728;2023-09-18T13:56:13;2.60;;;1.70;;
80586;SDS011;69943;20.850;106.728;2023-09-18T13:58:45;1.10;;;0.80;;
80586;SDS011;69943;20.850;106.728;2023-09-18T14:01:17;1.40;;;0.90;;
80586;SDS011;69943;20.850;106.728;2023-09-18T14:03:49;1.10;;;1.00;;
80586;SDS011;69943;20.850;106.728;2023-09-18T14:06:21;0.80;;;0.80;;
80586;SDS011;69943;20.850;106.728;2023-09-18T14:08:53;0.80;;;0.80;;
80586;SDS011;69943;20.850;106.728;2023-09-18T14:11:26;1.30;;;0.80;;
80586;SDS011;69943;20.850;106.728;2023-09-18T14:13:58;0.90;;;0.80;;
80586;SDS011;69943;20.850;106.728;2023-09-18T14:16:30;1.00;;;0.90;;
80586;SDS011;69943;20.850;106.728;2023-09-18T14:19:04;1.70;;;1.10;;
80586;SDS011;69943;20.850;106.728;2023-09-18T14:21:37;1.60;;;0.90;;
80586;SDS011;69943;20.850;106.728;2023-09-18T14:24:10;1.30;;;0.90;;
80586;SDS011;69943;20.850;106.728;2023-09-18T14:26:42;1.00;;;0.90;;
80586;SDS011;69943;20.850;106.728;2023-09-18T14:29:14;0.90;;;0.80;;
80586;SDS011;69943;20.850;106.728;2023-09-18T14:31:46;1.40;;;0.60;;
80586;SDS011;69943;20.850;106.728;2023-09-18T14:34:18;1.10;;;0.90;;
80586;SDS011;69943;20.850;106.728;2023-09-18T14:36:49;1.50;;;0.70;;
80586;SDS011;69943;20.850;106.728;2023-09-18T14:39:21;1.30;;;1.10;;
80586;SDS011;69943;20.850;106.728;2023-09-18T14:41:53;0.90;;;0.80;;
80586;SDS011;69943;20.850;106.728;2023-09-18T14:44:26;0.80;;;0.70;;
80586;SDS011;69943;20.850;106.728;2023-09-18T14:46:58;1.70;;;1.00;;
80586;SDS011;69943;20.850;106.728;2023-09-18T14:49:30;0.90;;;0.80;;
80586;SDS011;69943;20.850;106.728;2023-09-18T14:52:03;1.70;;;0.90;;
80586;SDS011;69943;20.850;106.728;2023-09-18T14:54:35;0.90;;;0.90;;
80586;SDS011;69943;20.850;106.728;2023-09-18T14:57:07;0.50;;;0.50;;
80586;SDS011;69943;20.850;106.728;2023-09-18T14:59:39;1.20;;;0.70;;
80586;SDS011;69943;20.850;106.728;2023-09-18T15:02:13;1.40;;;0.80;;
80586;SDS011;69943;20.850;106.728;2023-09-18T15:04:45;0.50;;;0.50;;
80586;SDS011;69943;20.850;106.728;2023-09-18T15:07:18;2.00;;;0.90;;
80586;SDS011;69943;20.850;106.728;2023-09-18T15:09:49;2.30;;;0.70;;
80586;SDS011;69943;20.850;106.728;2023-09-18T15:12:21;0.40;;;0.40;;
80586;SDS011;69943;20.850;106.728;2023-09-18T15:14:53;1.00;;;0.90;;
80586;SDS011;69943;20.850;106.728;2023-09-18T15:17:26;0.80;;;0.50;;
80586;SDS011;69943;20.850;106.728;2023-09-18T15:19:59;1.60;;;0.90;;